Time;durP1;ratioP1;P1;durP2;ratioP2;P2;SDS_P1;SDS_P2;PMS_P1;PMS_P2;Temp;Humidity;BMP_temperature;BMP_pressure;BME280_temperature;BME280_humidity;BME280_pressure;Samples;Min_cycle;Max_cycle;Signal;HPM_P1;HPM_P2
2021/07/27 06:00:47;;;;;;;14.13;8.75;;;;;;;25.69;51.03;100276.20;1516517;85;25764;-69
2021/07/27 06:03:13;;;;;;;29.23;8.90;;;;;;;25.66;51.08;100277.02;1485845;87;22432;-67
2021/07/27 06:05:39;;;;;;;16.17;8.50;;;;;;;25.70;51.08;100283.29;1488908;87;22491;-72
2021/07/27 06:08:06;;;;;;;16.82;8.48;;;;;;;25.74;50.99;100281.16;1500303;87;21462;-70
2021/07/27 06:10:32;;;;;;;14.15;8.25;;;;;;;25.79;50.85;100285.84;1475037;87;21515;-71
2021/07/27 06:12:58;;;;;;;11.60;7.35;;;;;;;25.85;50.69;100280.80;1491012;87;21566;-71
2021/07/27 06:15:24;;;;;;;16.32;7.92;;;;;;;25.92;50.51;100283.30;1480879;87;21581;-66
2021/07/27 06:17:50;;;;;;;16.48;7.65;;;;;;;25.97;50.35;100280.66;1488490;87;22587;-71
2021/07/27 06:20:17;;;;;;;12.30;6.50;;;;;;;26.02;50.17;100273.41;1486209;87;21641;-69
2021/07/27 06:22:43;;;;;;;13.95;7.10;;;;;;;26.08;49.97;100269.67;1462790;87;22373;-69
2021/07/27 06:25:12;;;;;;;13.95;6.45;;;;;;;26.15;49.78;100280.86;1483752;87;21441;-69
2021/07/27 06:27:39;;;;;;;15.43;7.55;;;;;;;26.21;49.62;100277.13;1470745;87;21707;-68
2021/07/27 06:30:09;;;;;;;18.15;8.00;;;;;;;26.25;49.46;100276.92;1489053;87;21478;-69
2021/07/27 06:32:35;;;;;;;21.68;7.10;;;;;;;26.30;49.32;100276.98;1479627;87;21710;-70
2021/07/27 06:35:01;;;;;;;16.75;7.65;;;;;;;26.34;49.31;100272.67;1487934;87;21647;-69
2021/07/27 06:37:27;;;;;;;23.57;8.48;;;;;;;26.41;49.31;100268.38;1492074;88;21382;-66
2021/07/27 06:39:53;;;;;;;22.00;7.75;;;;;;;26.45;49.37;100264.91;1478514;87;21544;-68
2021/07/27 06:42:20;;;;;;;18.92;7.55;;;;;;;26.48;49.40;100265.75;1469018;88;21529;-67
2021/07/27 06:44:46;;;;;;;16.45;7.65;;;;;;;26.53;49.31;100267.20;1463049;89;21589;-68
2021/07/27 06:47:12;;;;;;;17.37;6.67;;;;;;;26.59;49.23;100269.97;1461517;89;21484;-65
2021/07/27 06:49:39;;;;;;;14.53;7.05;;;;;;;26.60;49.19;100270.23;1457000;89;22411;-69
2021/07/27 06:52:06;;;;;;;14.15;7.97;;;;;;;26.65;49.14;100258.08;1482548;89;21537;-69
2021/07/27 06:54:33;;;;;;;28.38;7.72;;;;;;;26.68;49.12;100256.20;1450610;89;21537;-66
2021/07/27 06:56:59;;;;;;;17.98;7.58;;;;;;;26.72;49.11;100266.27;1463023;89;22470;-66
2021/07/27 06:59:26;;;;;;;20.23;7.12;;;;;;;26.74;49.03;100272.27;1474171;89;21597;-69
2021/07/27 07:01:52;;;;;;;20.75;7.42;;;;;;;26.78;48.98;100268.48;1455878;90;21457;-68
2021/07/27 07:04:19;;;;;;;14.10;7.37;;;;;;;26.82;48.89;100273.69;1468694;90;21677;-64
2021/07/27 07:06:47;;;;;;;17.17;7.83;;;;;;;26.83;48.84;100268.53;1447315;90;21634;-65
2021/07/27 07:09:13;;;;;;;18.52;8.30;;;;;;;26.89;48.82;100276.18;1458238;90;21502;-65
2021/07/27 07:11:39;;;;;;;17.75;6.62;;;;;;;26.91;48.81;100274.03;1461549;90;21508;-67
2021/07/27 07:14:05;;;;;;;18.10;8.30;;;;;;;26.94;48.77;100278.41;1442160;90;21442;-66
2021/07/27 07:16:31;;;;;;;23.67;7.47;;;;;;;26.97;48.72;100279.23;1461065;90;21642;-65
2021/07/27 07:18:58;;;;;;;19.25;7.75;;;;;;;27.00;48.72;100278.72;1446757;90;21604;-64
2021/07/27 07:21:24;;;;;;;18.25;7.65;;;;;;;27.03;48.66;100283.36;1458020;90;21368;-66
2021/07/27 07:23:50;;;;;;;16.65;6.75;;;;;;;27.06;48.67;100276.05;1444488;90;21718;-66
2021/07/27 07:26:17;;;;;;;18.27;7.53;;;;;;;27.09;48.67;100280.95;1459608;90;21478;-64
2021/07/27 07:28:43;;;;;;;23.70;7.87;;;;;;;27.11;48.68;100278.26;1444288;90;21530;-66
2021/07/27 07:31:12;;;;;;;20.40;9.03;;;;;;;27.14;48.71;100279.64;1447466;90;21499;-64
2021/07/27 07:33:38;;;;;;;18.48;6.92;;;;;;;27.15;48.75;100271.76;1451233;89;21487;-62
2021/07/27 07:36:13;;;;;;;20.32;8.28;;;;;;;27.17;48.77;100276.43;1458968;90;21537;-64
2021/07/27 07:38:41;;;;;;;14.13;7.53;;;;;;;27.19;48.80;100272.38;1438429;90;21574;-65
2021/07/27 07:41:10;;;;;;;12.80;7.97;;;;;;;27.21;48.77;100278.89;1435595;90;21537;-64
2021/07/27 07:43:37;;;;;;;13.62;8.15;;;;;;;27.22;48.82;100280.00;1442518;88;21818;-66
2021/07/27 07:46:03;;;;;;;20.23;8.35;;;;;;;27.25;48.81;100281.37;1444099;90;21441;-67
2021/07/27 07:48:30;;;;;;;19.95;8.70;;;;;;;27.27;48.84;100290.06;1468494;90;21625;-64
2021/07/27 07:50:56;;;;;;;17.35;8.80;;;;;;;27.29;48.81;100287.91;1458022;90;21471;-66
2021/07/27 07:53:23;;;;;;;13.93;7.83;;;;;;;27.31;48.80;100286.31;1457995;90;22373;-66
2021/07/27 07:55:49;;;;;;;11.40;7.67;;;;;;;27.32;48.80;100288.75;1466676;90;21493;-65
2021/07/27 07:58:15;;;;;;;20.27;8.33;;;;;;;27.33;48.79;100289.56;1458116;90;21450;-65
2021/07/27 08:00:42;;;;;;;23.35;7.83;;;;;;;27.35;48.81;100300.45;1441709;89;22530;-63
2021/07/27 08:03:09;;;;;;;16.20;7.37;;;;;;;27.36;48.80;100298.03;1454375;89;21691;-67
2021/07/27 08:05:35;;;;;;;25.20;8.60;;;;;;;27.39;48.81;100294.78;1472168;89;22457;-67
2021/07/27 08:08:01;;;;;;;18.80;8.05;;;;;;;27.41;48.86;100304.02;1476096;89;21500;-67
2021/07/27 08:10:27;;;;;;;20.90;7.67;;;;;;;27.42;48.83;100306.48;1451870;89;21640;-69
2021/07/27 08:12:54;;;;;;;19.32;8.33;;;;;;;27.44;48.84;100310.28;1478022;89;21670;-69
2021/07/27 08:15:25;;;;;;;17.52;8.48;;;;;;;27.45;48.85;100314.11;1446953;89;21500;-69
2021/07/27 08:17:49;;;;;;;17.60;7.50;;;;;;;27.45;48.88;100310.04;1460873;89;21603;-67
2021/07/27 08:20:15;;;;;;;21.37;7.75;;;;;;;27.47;48.92;100317.09;1458969;89;21551;-69
2021/07/27 08:22:42;;;;;;;14.95;8.33;;;;;;;27.49;48.92;100319.02;1467077;89;21508;-69
2021/07/27 08:25:21;;;;;;;23.67;8.15;;;;;;;27.50;48.96;100319.29;1467250;89;21581;-67
2021/07/27 08:27:45;;;;;;;15.38;6.70;;;;;;;27.52;48.97;100321.21;1475341;88;22462;-66
2021/07/27 08:30:15;;;;;;;12.30;7.25;;;;;;;27.53;48.99;100323.66;1474102;89;22418;-69
2021/07/27 08:32:50;;;;;;;14.50;8.05;;;;;;;27.54;49.02;100328.57;1459228;89;21433;-67
2021/07/27 08:35:19;;;;;;;22.30;8.13;;;;;;;27.57;49.04;100330.77;1461125;89;21693;-68
2021/07/27 08:37:47;;;;;;;22.60;8.60;;;;;;;27.59;49.03;100328.58;1470150;89;22427;-67
2021/07/27 08:40:17;;;;;;;16.45;7.05;;;;;;;27.60;49.03;100334.31;1448962;89;21668;-66
2021/07/27 08:42:45;;;;;;;;;;;;;;;27.62;49.00;100328.05;1452927;88;21574;-67
2021/07/27 08:45:12;;;;;;;15.15;7.17;;;;;;;27.62;48.94;100320.74;1454054;89;20775;-66
2021/07/27 08:47:48;;;;;;;17.30;7.58;;;;;;;27.64;48.91;100323.18;1446196;89;22514;-68
2021/07/27 08:50:16;;;;;;;10.88;7.17;;;;;;;27.65;48.90;100318.04;1462819;89;22537;-66
2021/07/27 08:52:43;;;;;;;16.50;7.50;;;;;;;27.67;48.90;100325.37;1454830;89;22626;-65
2021/07/27 08:55:11;;;;;;;15.15;7.08;;;;;;;27.70;48.90;100328.10;1466651;89;22053;-66
2021/07/27 08:57:56;;;;;;;17.45;7.53;;;;;;;27.71;48.83;100326.50;1461804;89;21612;-67
2021/07/27 09:00:25;;;;;;;18.30;6.90;;;;;;;27.74;48.74;100325.16;1440489;90;22567;-65
2021/07/27 09:02:52;;;;;;;13.90;7.57;;;;;;;27.74;48.56;100328.69;1446612;90;21478;-64
2021/07/27 09:05:19;;;;;;;25.35;7.47;;;;;;;27.77;48.48;100328.16;1460818;90;21575;-65
2021/07/27 09:07:46;;;;;;;15.58;7.60;;;;;;;27.78;48.46;100327.06;1435974;90;21649;-65
2021/07/27 09:10:19;;;;;;;19.05;7.15;;;;;;;27.79;48.37;100331.44;1452526;90;21546;-65
2021/07/27 09:13:01;;;;;;;13.75;6.83;;;;;;;27.81;48.18;100334.72;1437585;90;21530;-65
2021/07/27 09:15:29;;;;;;;13.80;6.70;;;;;;;27.82;47.89;100335.02;1456318;90;21501;-65
2021/07/27 09:18:00;;;;;;;16.20;7.37;;;;;;;27.84;47.63;100345.06;1461832;90;21575;-64
2021/07/27 09:20:34;;;;;;;18.77;6.05;;;;;;;27.85;47.35;100326.33;1458502;90;21656;-65
2021/07/27 09:23:03;;;;;;;13.40;6.30;;;;;;;27.87;47.17;100330.94;1455235;90;21777;-65
2021/07/27 09:25:33;;;;;;;17.43;6.63;;;;;;;27.85;46.72;100342.64;1454219;90;22603;-65
2021/07/27 09:28:10;;;;;;;19.27;6.47;;;;;;;27.85;46.72;100342.64;1451174;89;22242;-66
2021/07/27 09:30:40;;;;;;;22.90;5.62;;;;;;;27.92;46.30;100344.30;1444752;90;21552;-68
2021/07/27 09:33:09;;;;;;;14.80;5.80;;;;;;;27.93;46.05;100340.48;1451396;90;22492;-64
2021/07/27 09:35:38;;;;;;;12.85;5.80;;;;;;;27.95;45.78;100338.33;1456537;90;21523;-66
2021/07/27 09:38:17;;;;;;;13.78;5.20;;;;;;;27.97;45.66;100332.09;1453604;90;21633;-68
2021/07/27 09:40:55;;;;;;;14.87;5.70;;;;;;;27.99;45.57;100332.63;1456132;90;22648;-65
2021/07/27 09:43:25;;;;;;;17.25;5.83;;;;;;;27.99;45.41;100340.23;1461748;90;22448;-68
2021/07/27 09:45:55;;;;;;;15.50;5.90;;;;;;;28.02;45.22;100340.25;1451791;90;21671;-66
2021/07/27 09:48:22;;;;;;;;;;;;;;;28.05;45.01;100340.56;1444417;90;21678;-66
2021/07/27 09:50:51;;;;;;;15.18;6.65;;;;;;;28.07;44.93;100337.56;1442599;90;20920;-67
2021/07/27 09:53:18;;;;;;;10.32;5.45;;;;;;;28.07;44.91;100334.30;1463197;90;21529;-66
2021/07/27 09:55:45;;;;;;;16.40;6.37;;;;;;;28.10;44.77;100339.75;1419279;92;21694;-64
2021/07/27 09:58:12;;;;;;;13.22;5.72;;;;;;;28.10;44.64;100344.64;1457972;89;21635;-68
2021/07/27 10:01:00;;;;;;;18.48;5.55;;;;;;;28.13;44.48;100359.62;1426584;89;21633;-69
2021/07/27 10:03:30;;;;;;;15.25;5.67;;;;;;;28.13;44.16;100347.38;1441190;90;21574;-71
2021/07/27 10:06:02;;;;;;;;;;;;;;;28.14;43.82;100349.03;1455833;90;21559;-72
2021/07/27 10:08:32;;;;;;;24.82;7.33;;;;;;;28.14;43.25;100342.23;1437610;88;20361;-71
2021/07/27 10:11:15;;;;;;;18.55;6.00;;;;;;;28.12;43.02;100347.92;1450711;90;22562;-69
2021/07/27 10:13:48;;;;;;;16.02;6.00;;;;;;;28.11;42.71;100350.38;1437970;90;21522;-66
2021/07/27 10:16:28;;;;;;;16.42;5.85;;;;;;;28.12;42.46;100340.30;1468634;90;21597;-68
2021/07/27 10:18:55;;;;;;;20.82;6.53;;;;;;;28.11;42.37;100345.48;1459488;90;21577;-68
2021/07/27 10:21:27;;;;;;;21.60;6.80;;;;;;;28.11;42.24;100341.41;1438142;90;22538;-66
2021/07/27 10:23:59;;;;;;;17.32;5.50;;;;;;;28.11;42.25;100334.60;1449638;90;21641;-66
2021/07/27 10:26:33;;;;;;;20.45;7.12;;;;;;;28.11;42.18;100340.05;1449369;90;21545;-66
2021/07/27 10:29:01;;;;;;;23.20;6.17;;;;;;;28.11;42.25;100340.86;1453433;90;21715;-66
2021/07/27 10:31:35;;;;;;;17.42;5.87;;;;;;;28.11;42.18;100347.66;1442668;89;21514;-63
2021/07/27 10:34:03;;;;;;;12.03;5.10;;;;;;;28.12;42.36;100348.47;1468076;90;21604;-65
2021/07/27 10:36:33;;;;;;;16.97;6.03;;;;;;;28.12;42.38;100346.56;1433927;90;21752;-65
2021/07/27 10:39:19;;;;;;;;;;;;;;;28.13;42.12;100354.17;1450701;90;21492;-65
2021/07/27 10:41:49;;;;;;;13.03;5.53;;;;;;;28.12;41.82;100349.83;1438694;88;20293;-67
2021/07/27 10:44:20;;;;;;;11.97;5.05;;;;;;;28.11;41.72;100341.41;1445076;90;21817;-66
2021/07/27 10:46:49;;;;;;;17.62;5.97;;;;;;;28.09;41.69;100342.20;1420651;92;21576;-66
2021/07/27 10:49:25;;;;;;;13.18;5.58;;;;;;;28.10;41.60;100345.19;1411267;91;22715;-66
2021/07/27 10:52:01;;;;;;;12.93;5.62;;;;;;;28.09;41.70;100357.16;1422999;91;21480;-66
2021/07/27 10:54:30;;;;;;;15.85;5.37;;;;;;;28.08;41.82;100359.08;1429455;91;21592;-66
2021/07/27 10:57:02;;;;;;;23.75;5.97;;;;;;;28.08;41.70;100360.43;1412904;91;21661;-66
2021/07/27 10:59:32;;;;;;;14.25;5.67;;;;;;;28.10;41.55;100353.34;1455128;89;21515;-66
2021/07/27 11:01:59;;;;;;;;;;;;;;;28.08;41.57;100359.59;1449621;89;21612;-65
2021/07/27 11:04:28;;;;;;;16.55;6.33;;;;;;;28.08;41.39;100368.59;1460021;90;20217;-64
2021/07/27 11:07:06;;;;;;;11.48;5.78;;;;;;;28.07;41.28;100349.80;1462261;90;21494;-65
2021/07/27 11:09:33;;;;;;;17.57;5.67;;;;;;;28.08;41.25;100348.70;1462515;90;22441;-65
2021/07/27 11:11:59;;;;;;;11.53;5.30;;;;;;;28.07;41.19;100353.88;1452210;90;21923;-66
2021/07/27 11:14:26;;;;;;;12.53;5.40;;;;;;;28.07;41.07;100353.88;1460344;90;22505;-65
2021/07/27 11:16:52;;;;;;;14.35;5.70;;;;;;;28.06;40.89;100349.53;1449770;90;22514;-64
2021/07/27 11:19:25;;;;;;;17.90;5.53;;;;;;;28.06;40.79;100360.41;1448632;90;21457;-67
2021/07/27 11:21:55;;;;;;;17.90;6.33;;;;;;;28.05;40.79;100346.00;1445686;90;21574;-68
2021/07/27 11:24:24;;;;;;;17.75;5.75;;;;;;;28.06;40.71;100353.62;1442143;90;21538;-67
2021/07/27 11:26:52;;;;;;;18.85;6.40;;;;;;;28.05;40.77;100344.64;1466516;90;21405;-66
2021/07/27 11:29:19;;;;;;;13.75;6.10;;;;;;;28.04;40.85;100334.83;1434085;90;21652;-64
2021/07/27 11:31:50;;;;;;;15.70;5.62;;;;;;;28.05;40.92;100332.92;1442666;90;21561;-69
2021/07/27 11:34:30;;;;;;;14.18;5.87;;;;;;;28.05;40.90;100334.28;1442263;89;21671;-67
2021/07/27 11:37:01;;;;;;;17.23;5.10;;;;;;;28.05;40.98;100331.56;1436903;90;21530;-66
2021/07/27 11:39:27;;;;;;;12.03;4.60;;;;;;;28.05;41.13;100340.56;1451926;90;22367;-66
2021/07/27 11:42:02;;;;;;;14.78;5.60;;;;;;;28.05;41.14;100330.20;1451348;88;21575;-65
2021/07/27 11:44:29;;;;;;;13.55;5.37;;;;;;;28.05;41.16;100327.48;1462332;90;21648;-68
2021/07/27 11:46:56;;;;;;;8.03;4.33;;;;;;;28.05;41.19;100320.67;1449689;90;21413;-64
2021/07/27 11:49:25;;;;;;;8.53;5.15;;;;;;;28.05;41.20;100324.76;1455954;90;22528;-67
2021/07/27 11:52:03;;;;;;;12.50;5.00;;;;;;;28.05;41.21;100316.08;1456466;90;21568;-66
2021/07/27 11:54:29;;;;;;;13.68;5.05;;;;;;;28.05;41.23;100321.52;1441157;90;21541;-65
2021/07/27 11:56:56;;;;;;;9.58;5.08;;;;;;;28.06;41.23;100319.61;1446264;90;21470;-65
2021/07/27 11:59:29;;;;;;;9.25;4.87;;;;;;;28.05;41.20;100312.52;1465218;90;21508;-66
2021/07/27 12:02:09;;;;;;;12.53;5.28;;;;;;;28.05;41.17;100310.64;1448761;89;21604;-66
2021/07/27 12:04:35;;;;;;;10.65;4.62;;;;;;;28.06;41.20;100311.45;1417988;92;21434;-64
2021/07/27 12:07:04;;;;;;;8.28;5.08;;;;;;;28.05;41.17;100307.08;1419438;92;21700;-66
2021/07/27 12:09:30;;;;;;;9.45;5.10;;;;;;;28.06;41.19;100312.81;1425111;92;21699;-64
2021/07/27 12:11:57;;;;;;;10.45;4.78;;;;;;;28.06;41.17;100297.85;1426459;92;22554;-65
2021/07/27 12:14:23;;;;;;;10.72;4.35;;;;;;;28.06;41.13;100299.21;1418558;92;21530;-66
2021/07/27 12:16:52;;;;;;;9.93;4.65;;;;;;;28.05;41.15;100296.20;1409793;92;21515;-66
2021/07/27 12:19:19;;;;;;;9.25;4.92;;;;;;;28.06;41.25;100298.66;1410084;92;21544;-67
2021/07/27 12:21:45;;;;;;;10.08;3.92;;;;;;;28.08;41.31;100295.66;1425788;92;21666;-67
2021/07/27 12:24:11;;;;;;;10.30;5.55;;;;;;;28.08;41.20;100284.27;1420699;92;21383;-68
2021/07/27 12:26:41;;;;;;;10.15;4.85;;;;;;;28.08;41.21;100292.94;1425466;92;21529;-66
2021/07/27 12:29:06;;;;;;;7.67;4.95;;;;;;;28.08;41.20;100297.02;1420472;92;22581;-65
2021/07/27 12:31:32;;;;;;;7.30;4.08;;;;;;;28.09;41.17;100294.59;1412694;92;21767;-66
2021/07/27 12:33:59;;;;;;;9.03;4.12;;;;;;;28.08;41.19;100291.58;1402433;92;21544;-67
2021/07/27 12:36:25;;;;;;;8.35;4.22;;;;;;;28.09;41.22;100291.87;1428162;92;21471;-66
2021/07/27 12:38:52;;;;;;;9.30;4.08;;;;;;;28.08;41.24;100288.34;1432985;92;21596;-65
2021/07/27 12:41:18;;;;;;;7.95;4.35;;;;;;;28.08;41.26;100292.94;1419143;92;21728;-66
2021/07/27 12:43:44;;;;;;;11.53;4.35;;;;;;;28.08;41.19;100288.86;1430248;90;21663;-66
2021/07/27 12:46:10;;;;;;;10.98;4.28;;;;;;;28.08;41.15;100292.94;1445899;90;21530;-68
2021/07/27 12:48:37;;;;;;;7.75;3.95;;;;;;;28.07;41.20;100294.03;1439681;90;22698;-69
2021/07/27 12:51:04;;;;;;;8.43;4.03;;;;;;;28.06;41.22;100294.59;1440509;90;21677;-68
2021/07/27 12:53:30;;;;;;;6.00;4.03;;;;;;;28.07;41.21;100299.48;1447388;90;21528;-67
2021/07/27 12:55:58;;;;;;;7.72;4.37;;;;;;;28.06;41.19;100292.41;1440926;90;21620;-66
2021/07/27 12:58:24;;;;;;;8.20;4.22;;;;;;;28.05;41.19;100286.67;1455541;90;21596;-66
2021/07/27 13:00:51;;;;;;;7.33;3.62;;;;;;;28.05;41.16;100280.72;1449330;90;21596;-65
2021/07/27 13:03:18;;;;;;;9.63;4.15;;;;;;;28.05;41.14;100285.31;1451775;90;22672;-65
2021/07/27 13:05:46;;;;;;;8.38;3.77;;;;;;;28.05;41.15;100285.31;1431564;91;21493;-67
2021/07/27 13:08:13;;;;;;;4.87;3.52;;;;;;;28.04;41.16;100283.69;1474548;86;21803;-66
2021/07/27 13:10:39;;;;;;;7.40;3.92;;;;;;;28.03;41.17;100282.88;1499089;86;21494;-70
2021/07/27 13:13:06;;;;;;;7.10;3.92;;;;;;;28.05;41.19;100279.88;1503506;85;21605;-67
2021/07/27 13:15:32;;;;;;;7.30;3.67;;;;;;;28.04;41.20;100279.61;1519256;86;21590;-66
2021/07/27 13:17:58;;;;;;;9.13;4.37;;;;;;;28.02;41.20;100279.86;1498527;86;21413;-68
2021/07/27 13:20:26;;;;;;;9.40;3.77;;;;;;;28.04;41.30;100285.05;1477825;86;21638;-66
2021/07/27 13:22:52;;;;;;;5.72;3.27;;;;;;;28.04;41.29;100280.97;1493633;86;21427;-67
2021/07/27 13:25:18;;;;;;;10.18;4.22;;;;;;;28.04;41.34;100275.53;1512772;86;21399;-68
2021/07/27 13:27:44;;;;;;;9.08;4.10;;;;;;;28.04;41.33;100268.73;1523010;85;21494;-67
2021/07/27 13:30:13;;;;;;;9.15;4.00;;;;;;;28.04;41.34;100272.27;1513118;86;21449;-68
2021/07/27 13:32:39;;;;;;;4.47;3.60;;;;;;;28.04;41.45;100275.53;1486628;86;21631;-67
2021/07/27 13:35:08;;;;;;;6.87;3.95;;;;;;;28.04;41.50;100273.63;1501461;85;22486;-69
2021/07/27 13:37:34;;;;;;;8.00;3.72;;;;;;;28.05;41.40;100269.00;1504670;86;21391;-68
2021/07/27 13:40:01;;;;;;;9.03;4.12;;;;;;;28.04;41.40;100272.27;1467516;86;21642;-68
2021/07/27 13:42:27;;;;;;;14.63;3.45;;;;;;;28.02;41.42;100267.63;1502870;86;21759;-68
2021/07/27 13:44:53;;;;;;;8.58;3.37;;;;;;;28.04;41.57;100272.81;1508201;86;21435;-67
2021/07/27 13:47:20;;;;;;;7.05;3.70;;;;;;;28.05;41.59;100275.80;1505512;86;21458;-63
2021/07/27 13:49:46;;;;;;;8.85;4.15;;;;;;;28.04;41.57;100269.55;1515008;86;22427;-69
2021/07/27 13:52:12;;;;;;;10.40;3.70;;;;;;;28.04;41.75;100266.83;1524865;86;21560;-68
2021/07/27 13:54:40;;;;;;;6.78;3.70;;;;;;;28.05;41.77;100269.84;1496340;86;22411;-69
2021/07/27 13:57:07;;;;;;;6.72;4.42;;;;;;;28.06;41.70;100272.02;1518961;86;21501;-69
2021/07/27 13:59:35;;;;;;;8.38;3.08;;;;;;;28.05;41.70;100271.20;1507484;86;21546;-67
